sensor_id;sensor_type;location;lat;lon;timestamp;temperature;humidity
21770;DHT22;11046;49.558;8.674;2022-07-12T00:02:29;17.70;66.60
21770;DHT22;11046;49.558;8.674;2022-07-12T00:05:29;17.70;66.90
21770;DHT22;11046;49.558;8.674;2022-07-12T00:08:30;17.70;67.00
21770;DHT22;11046;49.558;8.674;2022-07-12T00:11:31;17.70;67.10
21770;DHT22;11046;49.558;8.674;2022-07-12T00:14:31;17.60;67.20
21770;DHT22;11046;49.558;8.674;2022-07-12T00:17:32;17.60;67.30
21770;DHT22;11046;49.558;8.674;2022-07-12T00:20:33;17.60;67.30
21770;DHT22;11046;49.558;8.674;2022-07-12T00:23:34;17.50;67.50
21770;DHT22;11046;49.558;8.674;2022-07-12T00:26:35;17.40;67.80
21770;DHT22;11046;49.558;8.674;2022-07-12T00:29:36;17.30;68.00
21770;DHT22;11046;49.558;8.674;2022-07-12T00:32:36;17.10;68.40
21770;DHT22;11046;49.558;8.674;2022-07-12T00:35:37;17.10;68.80
21770;DHT22;11046;49.558;8.674;2022-07-12T00:38:38;17.00;68.90
21770;DHT22;11046;49.558;8.674;2022-07-12T00:41:39;16.90;69.20
21770;DHT22;11046;49.558;8.674;2022-07-12T00:44:39;16.80;69.50
21770;DHT22;11046;49.558;8.674;2022-07-12T00:47:45;16.80;69.80
21770;DHT22;11046;49.558;8.674;2022-07-12T00:50:46;16.70;70.10
21770;DHT22;11046;49.558;8.674;2022-07-12T00:53:48;16.70;70.10
21770;DHT22;11046;49.558;8.674;2022-07-12T00:56:49;16.70;70.00
21770;DHT22;11046;49.558;8.674;2022-07-12T00:59:50;16.60;70.10
21770;DHT22;11046;49.558;8.674;2022-07-12T01:02:52;16.60;70.30
21770;DHT22;11046;49.558;8.674;2022-07-12T01:05:53;16.50;70.60
21770;DHT22;11046;49.558;8.674;2022-07-12T01:08:56;16.40;70.90
21770;DHT22;11046;49.558;8.674;2022-07-12T01:11:59;16.30;71.30
21770;DHT22;11046;49.558;8.674;2022-07-12T01:14:59;16.30;71.40
21770;DHT22;11046;49.558;8.674;2022-07-12T01:18:00;16.20;71.60
21770;DHT22;11046;49.558;8.674;2022-07-12T01:21:04;16.20;71.70
21770;DHT22;11046;49.558;8.674;2022-07-12T01:24:06;16.10;72.00
21770;DHT22;11046;49.558;8.674;2022-07-12T01:27:09;16.00;72.50
21770;DHT22;11046;49.558;8.674;2022-07-12T01:30:11;16.00;72.80
21770;DHT22;11046;49.558;8.674;2022-07-12T01:33:11;16.00;72.90
21770;DHT22;11046;49.558;8.674;2022-07-12T01:36:12;15.90;72.70
21770;DHT22;11046;49.558;8.674;2022-07-12T01:39:13;15.90;73.00
21770;DHT22;11046;49.558;8.674;2022-07-12T01:42:14;15.90;73.10
21770;DHT22;11046;49.558;8.674;2022-07-12T01:45:14;15.70;73.40
21770;DHT22;11046;49.558;8.674;2022-07-12T01:48:15;15.70;73.90
21770;DHT22;11046;49.558;8.674;2022-07-12T01:51:16;15.70;74.10
21770;DHT22;11046;49.558;8.674;2022-07-12T01:54:16;15.70;74.40
21770;DHT22;11046;49.558;8.674;2022-07-12T01:57:18;15.60;74.50
21770;DHT22;11046;49.558;8.674;2022-07-12T02:00:19;15.60;74.80
21770;DHT22;11046;49.558;8.674;2022-07-12T02:03:20;15.50;74.90
21770;DHT22;11046;49.558;8.674;2022-07-12T02:06:21;15.50;74.90
21770;DHT22;11046;49.558;8.674;2022-07-12T02:09:21;15.50;75.60
21770;DHT22;11046;49.558;8.674;2022-07-12T02:12:22;15.40;75.10
21770;DHT22;11046;49.558;8.674;2022-07-12T02:15:23;15.50;75.30
21770;DHT22;11046;49.558;8.674;2022-07-12T02:18:24;15.50;75.30
21770;DHT22;11046;49.558;8.674;2022-07-12T02:21:25;15.40;75.30
21770;DHT22;11046;49.558;8.674;2022-07-12T02:24:26;15.40;75.60
21770;DHT22;11046;49.558;8.674;2022-07-12T02:27:26;15.30;75.70
21770;DHT22;11046;49.558;8.674;2022-07-12T02:30:27;15.30;75.90
21770;DHT22;11046;49.558;8.674;2022-07-12T02:33:28;15.20;76.20
21770;DHT22;11046;49.558;8.674;2022-07-12T02:36:28;15.20;76.50
21770;DHT22;11046;49.558;8.674;2022-07-12T02:39:29;15.10;76.60
21770;DHT22;11046;49.558;8.674;2022-07-12T02:42:30;15.10;76.90
21770;DHT22;11046;49.558;8.674;2022-07-12T02:45:32;15.00;77.10
21770;DHT22;11046;49.558;8.674;2022-07-12T02:48:33;15.00;77.30
21770;DHT22;11046;49.558;8.674;2022-07-12T02:51:33;14.90;77.60
21770;DHT22;11046;49.558;8.674;2022-07-12T02:54:34;14.90;77.90
21770;DHT22;11046;49.558;8.674;2022-07-12T02:57:34;14.80;78.20
21770;DHT22;11046;49.558;8.674;2022-07-12T03:00:35;14.80;78.40
21770;DHT22;11046;49.558;8.674;2022-07-12T03:03:36;14.70;78.50
21770;DHT22;11046;49.558;8.674;2022-07-12T03:06:36;14.70;78.60
21770;DHT22;11046;49.558;8.674;2022-07-12T03:09:37;14.70;78.70
21770;DHT22;11046;49.558;8.674;2022-07-12T03:12:38;14.70;78.80
21770;DHT22;11046;49.558;8.674;2022-07-12T03:15:39;14.70;78.70
21770;DHT22;11046;49.558;8.674;2022-07-12T03:18:40;14.70;78.40
21770;DHT22;11046;49.558;8.674;2022-07-12T03:21:41;14.70;78.90
21770;DHT22;11046;49.558;8.674;2022-07-12T03:24:42;14.60;78.90
21770;DHT22;11046;49.558;8.674;2022-07-12T03:27:43;14.50;79.10
21770;DHT22;11046;49.558;8.674;2022-07-12T03:30:44;14.50;79.40
21770;DHT22;11046;49.558;8.674;2022-07-12T03:33:45;14.50;79.80
21770;DHT22;11046;49.558;8.674;2022-07-12T03:36:45;14.50;79.60
21770;DHT22;11046;49.558;8.674;2022-07-12T03:39:46;14.40;79.70
21770;DHT22;11046;49.558;8.674;2022-07-12T03:42:47;14.40;80.00
21770;DHT22;11046;49.558;8.674;2022-07-12T03:45:48;14.40;80.30
21770;DHT22;11046;49.558;8.674;2022-07-12T03:48:49;14.40;80.60
21770;DHT22;11046;49.558;8.674;2022-07-12T03:51:49;14.30;80.70
21770;DHT22;11046;49.558;8.674;2022-07-12T03:54:50;14.30;80.80
21770;DHT22;11046;49.558;8.674;2022-07-12T03:57:51;14.30;81.00
21770;DHT22;11046;49.558;8.674;2022-07-12T04:00:51;14.30;81.00
21770;DHT22;11046;49.558;8.674;2022-07-12T04:03:52;14.40;81.00
21770;DHT22;11046;49.558;8.674;2022-07-12T04:06:53;14.30;81.20
21770;DHT22;11046;49.558;8.674;2022-07-12T04:09:53;14.30;81.50
21770;DHT22;11046;49.558;8.674;2022-07-12T04:12:54;14.20;82.30
21770;DHT22;11046;49.558;8.674;2022-07-12T04:15:54;14.20;81.50
21770;DHT22;11046;49.558;8.674;2022-07-12T04:18:56;14.20;81.50
21770;DHT22;11046;49.558;8.674;2022-07-12T04:21:57;14.20;81.90
21770;DHT22;11046;49.558;8.674;2022-07-12T04:24:58;14.10;82.20
21770;DHT22;11046;49.558;8.674;2022-07-12T04:28:00;14.20;82.40
21770;DHT22;11046;49.558;8.674;2022-07-12T04:31:01;14.20;82.60
21770;DHT22;11046;49.558;8.674;2022-07-12T04:34:02;14.10;82.50
21770;DHT22;11046;49.558;8.674;2022-07-12T04:37:03;14.20;82.50
21770;DHT22;11046;49.558;8.674;2022-07-12T04:40:04;14.30;82.50
21770;DHT22;11046;49.558;8.674;2022-07-12T04:43:05;14.40;82.40
21770;DHT22;11046;49.558;8.674;2022-07-12T04:46:10;14.40;82.20
21770;DHT22;11046;49.558;8.674;2022-07-12T04:49:10;14.40;82.40
21770;DHT22;11046;49.558;8.674;2022-07-12T04:52:11;14.40;82.30
21770;DHT22;11046;49.558;8.674;2022-07-12T04:55:12;14.40;82.40
21770;DHT22;11046;49.558;8.674;2022-07-12T04:58:12;14.50;82.50
21770;DHT22;11046;49.558;8.674;2022-07-12T05:01:13;14.50;82.90
21770;DHT22;11046;49.558;8.674;2022-07-12T05:04:14;14.50;82.40
21770;DHT22;11046;49.558;8.674;2022-07-12T05:07:14;14.50;82.30
21770;DHT22;11046;49.558;8.674;2022-07-12T05:10:15;14.50;82.40
21770;DHT22;11046;49.558;8.674;2022-07-12T05:13:16;14.60;82.40
21770;DHT22;11046;49.558;8.674;2022-07-12T05:16:17;14.60;82.30
21770;DHT22;11046;49.558;8.674;2022-07-12T05:19:18;14.60;82.40
21770;DHT22;11046;49.558;8.674;2022-07-12T05:22:19;14.60;82.40
21770;DHT22;11046;49.558;8.674;2022-07-12T05:25:19;14.70;82.40
21770;DHT22;11046;49.558;8.674;2022-07-12T05:28:20;14.70;82.60
21770;DHT22;11046;49.558;8.674;2022-07-12T05:31:21;14.70;82.90
21770;DHT22;11046;49.558;8.674;2022-07-12T05:34:22;14.80;83.10
21770;DHT22;11046;49.558;8.674;2022-07-12T05:37:22;14.90;83.20
21770;DHT22;11046;49.558;8.674;2022-07-12T05:40:26;15.10;83.40
21770;DHT22;11046;49.558;8.674;2022-07-12T05:43:27;15.20;83.20
21770;DHT22;11046;49.558;8.674;2022-07-12T05:46:27;15.30;83.20
21770;DHT22;11046;49.558;8.674;2022-07-12T05:49:28;15.40;84.00
21770;DHT22;11046;49.558;8.674;2022-07-12T05:52:28;15.60;84.00
21770;DHT22;11046;49.558;8.674;2022-07-12T05:55:52;15.80;83.10
21770;DHT22;11046;49.558;8.674;2022-07-12T05:58:53;16.10;82.90
21770;DHT22;11046;49.558;8.674;2022-07-12T06:01:54;16.30;82.50
21770;DHT22;11046;49.558;8.674;2022-07-12T06:04:55;16.40;82.50
21770;DHT22;11046;49.558;8.674;2022-07-12T06:07:55;16.70;82.30
21770;DHT22;11046;49.558;8.674;2022-07-12T06:10:57;16.90;81.80
21770;DHT22;11046;49.558;8.674;2022-07-12T06:13:57;17.20;81.20
21770;DHT22;11046;49.558;8.674;2022-07-12T06:16:58;17.50;80.70
21770;DHT22;11046;49.558;8.674;2022-07-12T06:19:59;17.70;80.30
21770;DHT22;11046;49.558;8.674;2022-07-12T06:22:59;18.00;79.90
21770;DHT22;11046;49.558;8.674;2022-07-12T06:26:00;18.40;79.20
21770;DHT22;11046;49.558;8.674;2022-07-12T06:29:01;18.70;78.80
21770;DHT22;11046;49.558;8.674;2022-07-12T06:32:01;19.00;78.40
21770;DHT22;11046;49.558;8.674;2022-07-12T06:35:02;19.40;77.80
21770;DHT22;11046;49.558;8.674;2022-07-12T06:38:03;19.80;76.90
21770;DHT22;11046;49.558;8.674;2022-07-12T06:41:04;20.10;76.30
21770;DHT22;11046;49.558;8.674;2022-07-12T06:44:04;20.40;75.30
21770;DHT22;11046;49.558;8.674;2022-07-12T06:47:05;20.60;74.80
21770;DHT22;11046;49.558;8.674;2022-07-12T06:50:06;20.90;74.20
21770;DHT22;11046;49.558;8.674;2022-07-12T06:53:07;21.20;73.10
21770;DHT22;11046;49.558;8.674;2022-07-12T06:56:07;21.40;71.90
21770;DHT22;11046;49.558;8.674;2022-07-12T06:59:08;21.60;71.10
21770;DHT22;11046;49.558;8.674;2022-07-12T07:02:11;21.80;70.10
21770;DHT22;11046;49.558;8.674;2022-07-12T07:05:12;22.30;68.80
21770;DHT22;11046;49.558;8.674;2022-07-12T07:08:13;22.50;67.50
21770;DHT22;11046;49.558;8.674;2022-07-12T07:11:13;22.80;66.60
21770;DHT22;11046;49.558;8.674;2022-07-12T07:14:14;23.20;66.00
21770;DHT22;11046;49.558;8.674;2022-07-12T07:17:16;23.50;64.50
21770;DHT22;11046;49.558;8.674;2022-07-12T07:20:17;23.60;63.60
21770;DHT22;11046;49.558;8.674;2022-07-12T07:23:18;23.90;62.70
21770;DHT22;11046;49.558;8.674;2022-07-12T07:26:19;24.00;61.80
21770;DHT22;11046;49.558;8.674;2022-07-12T07:29:19;24.30;61.50
21770;DHT22;11046;49.558;8.674;2022-07-12T07:32:38;24.50;59.20
21770;DHT22;11046;49.558;8.674;2022-07-12T07:35:39;24.60;58.50
21770;DHT22;11046;49.558;8.674;2022-07-12T07:38:40;24.60;58.10
21770;DHT22;11046;49.558;8.674;2022-07-12T07:41:41;25.00;57.50
21770;DHT22;11046;49.558;8.674;2022-07-12T07:44:41;25.30;56.50
21770;DHT22;11046;49.558;8.674;2022-07-12T07:47:49;25.60;56.30
21770;DHT22;11046;49.558;8.674;2022-07-12T07:50:49;25.80;55.30
21770;DHT22;11046;49.558;8.674;2022-07-12T07:53:50;26.20;55.10
21770;DHT22;11046;49.558;8.674;2022-07-12T07:56:51;26.40;54.50
21770;DHT22;11046;49.558;8.674;2022-07-12T07:59:51;26.80;53.70
21770;DHT22;11046;49.558;8.674;2022-07-12T08:02:54;27.10;52.40
21770;DHT22;11046;49.558;8.674;2022-07-12T08:05:55;27.00;51.30
21770;DHT22;11046;49.558;8.674;2022-07-12T08:08:57;27.30;51.30
21770;DHT22;11046;49.558;8.674;2022-07-12T08:11:58;27.60;50.90
21770;DHT22;11046;49.558;8.674;2022-07-12T08:14:59;27.90;50.30
21770;DHT22;11046;49.558;8.674;2022-07-12T08:17:59;28.00;49.30
21770;DHT22;11046;49.558;8.674;2022-07-12T08:21:00;28.10;48.60
21770;DHT22;11046;49.558;8.674;2022-07-12T08:24:01;28.20;47.70
21770;DHT22;11046;49.558;8.674;2022-07-12T08:27:02;28.30;47.20
21770;DHT22;11046;49.558;8.674;2022-07-12T08:30:03;28.70;46.50
21770;DHT22;11046;49.558;8.674;2022-07-12T08:33:04;28.80;45.60
21770;DHT22;11046;49.558;8.674;2022-07-12T08:36:04;28.80;45.50
21770;DHT22;11046;49.558;8.674;2022-07-12T08:39:05;29.10;45.30
21770;DHT22;11046;49.558;8.674;2022-07-12T08:42:07;29.30;44.40
21770;DHT22;11046;49.558;8.674;2022-07-12T08:45:09;29.30;43.50
21770;DHT22;11046;49.558;8.674;2022-07-12T08:48:10;28.80;43.80
21770;DHT22;11046;49.558;8.674;2022-07-12T08:51:18;28.10;44.40
21770;DHT22;11046;49.558;8.674;2022-07-12T08:54:19;27.40;44.90
21770;DHT22;11046;49.558;8.674;2022-07-12T08:57:30;26.80;45.70
21770;DHT22;11046;49.558;8.674;2022-07-12T09:00:31;26.80;46.00
21770;DHT22;11046;49.558;8.674;2022-07-12T09:03:32;27.10;45.70
21770;DHT22;11046;49.558;8.674;2022-07-12T09:06:33;27.40;45.70
21770;DHT22;11046;49.558;8.674;2022-07-12T09:09:34;28.10;45.10
21770;DHT22;11046;49.558;8.674;2022-07-12T09:12:38;28.40;44.30
21770;DHT22;11046;49.558;8.674;2022-07-12T09:15:40;28.70;43.90
21770;DHT22;11046;49.558;8.674;2022-07-12T09:18:45;29.20;43.30
21770;DHT22;11046;49.558;8.674;2022-07-12T09:21:48;29.20;42.30
21770;DHT22;11046;49.558;8.674;2022-07-12T09:24:50;29.10;42.40
21770;DHT22;11046;49.558;8.674;2022-07-12T09:27:52;29.20;41.50
21770;DHT22;11046;49.558;8.674;2022-07-12T09:30:53;29.10;40.80
21770;DHT22;11046;49.558;8.674;2022-07-12T09:34:02;29.20;41.50
21770;DHT22;11046;49.558;8.674;2022-07-12T09:37:21;29.40;40.30
21770;DHT22;11046;49.558;8.674;2022-07-12T09:40:22;29.70;40.20
21770;DHT22;11046;49.558;8.674;2022-07-12T09:43:23;29.80;39.40
21770;DHT22;11046;49.558;8.674;2022-07-12T09:46:24;30.00;39.10
21770;DHT22;11046;49.558;8.674;2022-07-12T09:49:26;30.20;38.90
21770;DHT22;11046;49.558;8.674;2022-07-12T09:52:28;30.20;38.50
21770;DHT22;11046;49.558;8.674;2022-07-12T09:55:30;30.10;38.10
21770;DHT22;11046;49.558;8.674;2022-07-12T09:58:40;29.60;38.80
21770;DHT22;11046;49.558;8.674;2022-07-12T10:01:41;29.60;38.90
21770;DHT22;11046;49.558;8.674;2022-07-12T10:04:42;29.80;39.10
21770;DHT22;11046;49.558;8.674;2022-07-12T10:07:44;29.90;38.40
21770;DHT22;11046;49.558;8.674;2022-07-12T10:10:46;30.10;38.10
21770;DHT22;11046;49.558;8.674;2022-07-12T10:13:47;30.20;38.20
21770;DHT22;11046;49.558;8.674;2022-07-12T10:16:50;30.50;37.90
21770;DHT22;11046;49.558;8.674;2022-07-12T10:20:23;30.60;37.70
21770;DHT22;11046;49.558;8.674;2022-07-12T10:26:37;30.40;38.00
21770;DHT22;11046;49.558;8.674;2022-07-12T10:29:46;30.20;38.70
21770;DHT22;11046;49.558;8.674;2022-07-12T10:32:48;30.20;38.60
21770;DHT22;11046;49.558;8.674;2022-07-12T10:36:06;30.50;38.30
21770;DHT22;11046;49.558;8.674;2022-07-12T10:39:12;30.70;37.20
21770;DHT22;11046;49.558;8.674;2022-07-12T10:42:16;30.50;36.70
21770;DHT22;11046;49.558;8.674;2022-07-12T10:45:16;30.40;37.00
21770;DHT22;11046;49.558;8.674;2022-07-12T10:51:18;30.60;36.60
21770;DHT22;11046;49.558;8.674;2022-07-12T10:54:22;30.60;36.50
21770;DHT22;11046;49.558;8.674;2022-07-12T10:57:46;30.70;36.30
21770;DHT22;11046;49.558;8.674;2022-07-12T11:00:50;30.70;35.70
21770;DHT22;11046;49.558;8.674;2022-07-12T11:03:53;30.70;36.30
21770;DHT22;11046;49.558;8.674;2022-07-12T11:06:55;30.80;36.10
21770;DHT22;11046;49.558;8.674;2022-07-12T11:09:57;31.00;36.00
21770;DHT22;11046;49.558;8.674;2022-07-12T11:12:58;31.10;35.80
21770;DHT22;11046;49.558;8.674;2022-07-12T11:15:59;31.10;35.90
21770;DHT22;11046;49.558;8.674;2022-07-12T11:19:00;31.10;36.10
21770;DHT22;11046;49.558;8.674;2022-07-12T11:22:01;31.40;35.80
21770;DHT22;11046;49.558;8.674;2022-07-12T11:25:02;31.50;35.10
21770;DHT22;11046;49.558;8.674;2022-07-12T11:28:03;31.50;34.40
21770;DHT22;11046;49.558;8.674;2022-07-12T11:31:15;31.60;34.20
21770;DHT22;11046;49.558;8.674;2022-07-12T11:34:23;31.60;34.50
21770;DHT22;11046;49.558;8.674;2022-07-12T11:37:24;31.50;34.10
21770;DHT22;11046;49.558;8.674;2022-07-12T11:40:30;31.40;34.10
21770;DHT22;11046;49.558;8.674;2022-07-12T11:43:32;31.40;34.00
21770;DHT22;11046;49.558;8.674;2022-07-12T11:46:32;31.60;34.30
21770;DHT22;11046;49.558;8.674;2022-07-12T11:49:33;31.90;34.10
21770;DHT22;11046;49.558;8.674;2022-07-12T11:52:34;32.10;33.60
21770;DHT22;11046;49.558;8.674;2022-07-12T11:55:45;32.20;33.00
21770;DHT22;11046;49.558;8.674;2022-07-12T11:58:55;32.40;32.00
21770;DHT22;11046;49.558;8.674;2022-07-12T12:02:07;32.20;31.70
21770;DHT22;11046;49.558;8.674;2022-07-12T12:05:08;32.00;32.80
21770;DHT22;11046;49.558;8.674;2022-07-12T12:08:10;32.10;32.80
21770;DHT22;11046;49.558;8.674;2022-07-12T12:11:13;31.70;32.50
21770;DHT22;11046;49.558;8.674;2022-07-12T12:14:14;31.50;33.00
21770;DHT22;11046;49.558;8.674;2022-07-12T12:17:15;31.50;32.90
21770;DHT22;11046;49.558;8.674;2022-07-12T12:20:21;31.60;33.00
21770;DHT22;11046;49.558;8.674;2022-07-12T12:23:22;31.60;32.70
21770;DHT22;11046;49.558;8.674;2022-07-12T12:26:23;31.60;33.20
21770;DHT22;11046;49.558;8.674;2022-07-12T12:29:40;31.60;32.80
21770;DHT22;11046;49.558;8.674;2022-07-12T12:32:50;31.60;32.10
21770;DHT22;11046;49.558;8.674;2022-07-12T12:36:55;31.50;32.00
21770;DHT22;11046;49.558;8.674;2022-07-12T12:39:31;31.50;32.20
21770;DHT22;11046;49.558;8.674;2022-07-12T12:42:32;31.50;32.60
21770;DHT22;11046;49.558;8.674;2022-07-12T12:45:33;31.50;32.80
21770;DHT22;11046;49.558;8.674;2022-07-12T12:48:34;31.80;32.80
21770;DHT22;11046;49.558;8.674;2022-07-12T12:51:57;32.00;32.70
21770;DHT22;11046;49.558;8.674;2022-07-12T12:54:58;32.10;32.20
21770;DHT22;11046;49.558;8.674;2022-07-12T12:58:03;32.20;32.60
21770;DHT22;11046;49.558;8.674;2022-07-12T13:01:04;32.20;33.00
21770;DHT22;11046;49.558;8.674;2022-07-12T13:04:09;32.20;33.10
21770;DHT22;11046;49.558;8.674;2022-07-12T13:07:10;32.20;32.70
21770;DHT22;11046;49.558;8.674;2022-07-12T13:10:11;32.40;32.50
21770;DHT22;11046;49.558;8.674;2022-07-12T13:13:12;32.40;32.60
21770;DHT22;11046;49.558;8.674;2022-07-12T13:16:13;32.50;32.70
21770;DHT22;11046;49.558;8.674;2022-07-12T13:19:14;32.50;32.10
21770;DHT22;11046;49.558;8.674;2022-07-12T13:22:15;32.30;32.30
21770;DHT22;11046;49.558;8.674;2022-07-12T13:25:16;32.20;32.60
21770;DHT22;11046;49.558;8.674;2022-07-12T13:28:17;32.10;33.10
21770;DHT22;11046;49.558;8.674;2022-07-12T13:31:18;32.10;32.90
21770;DHT22;11046;49.558;8.674;2022-07-12T13:34:19;32.00;32.70
21770;DHT22;11046;49.558;8.674;2022-07-12T13:37:19;32.10;32.80
21770;DHT22;11046;49.558;8.674;2022-07-12T13:40:20;32.10;32.60
21770;DHT22;11046;49.558;8.674;2022-07-12T13:43:22;32.10;32.50
21770;DHT22;11046;49.558;8.674;2022-07-12T13:46:23;32.10;32.40
21770;DHT22;11046;49.558;8.674;2022-07-12T13:49:24;32.00;32.80
21770;DHT22;11046;49.558;8.674;2022-07-12T13:52:25;32.10;32.50
21770;DHT22;11046;49.558;8.674;2022-07-12T13:55:26;31.90;32.30
21770;DHT22;11046;49.558;8.674;2022-07-12T13:58:26;31.60;32.30
21770;DHT22;11046;49.558;8.674;2022-07-12T14:01:27;31.50;32.60
21770;DHT22;11046;49.558;8.674;2022-07-12T14:04:28;31.50;32.70
21770;DHT22;11046;49.558;8.674;2022-07-12T14:07:28;31.60;32.70
21770;DHT22;11046;49.558;8.674;2022-07-12T14:10:29;31.70;32.70
21770;DHT22;11046;49.558;8.674;2022-07-12T14:13:30;31.70;32.40
21770;DHT22;11046;49.558;8.674;2022-07-12T14:16:31;31.50;32.50
21770;DHT22;11046;49.558;8.674;2022-07-12T14:19:32;31.30;32.80
21770;DHT22;11046;49.558;8.674;2022-07-12T14:22:34;31.30;33.00
21770;DHT22;11046;49.558;8.674;2022-07-12T14:25:34;31.40;33.10
21770;DHT22;11046;49.558;8.674;2022-07-12T14:28:35;31.50;33.00
21770;DHT22;11046;49.558;8.674;2022-07-12T14:31:36;31.60;33.10
21770;DHT22;11046;49.558;8.674;2022-07-12T14:34:37;31.60;32.60
21770;DHT22;11046;49.558;8.674;2022-07-12T14:37:38;31.50;32.70
21770;DHT22;11046;49.558;8.674;2022-07-12T14:40:39;31.50;32.20
21770;DHT22;11046;49.558;8.674;2022-07-12T14:43:40;31.50;32.50
21770;DHT22;11046;49.558;8.674;2022-07-12T14:46:40;31.50;32.70
21770;DHT22;11046;49.558;8.674;2022-07-12T14:49:41;31.50;32.50
21770;DHT22;11046;49.558;8.674;2022-07-12T14:52:42;31.50;32.60
21770;DHT22;11046;49.558;8.674;2022-07-12T14:55:44;31.60;32.20
21770;DHT22;11046;49.558;8.674;2022-07-12T14:58:44;31.60;32.20
21770;DHT22;11046;49.558;8.674;2022-07-12T15:01:45;31.60;32.20
21770;DHT22;11046;49.558;8.674;2022-07-12T15:04:46;31.50;31.70
21770;DHT22;11046;49.558;8.674;2022-07-12T15:07:47;31.50;31.80
21770;DHT22;11046;49.558;8.674;2022-07-12T15:10:47;31.30;31.70
21770;DHT22;11046;49.558;8.674;2022-07-12T15:13:48;31.30;32.10
21770;DHT22;11046;49.558;8.674;2022-07-12T15:16:49;31.10;32.20
21770;DHT22;11046;49.558;8.674;2022-07-12T15:19:50;31.10;32.30
21770;DHT22;11046;49.558;8.674;2022-07-12T15:22:51;31.20;32.50
21770;DHT22;11046;49.558;8.674;2022-07-12T15:25:51;31.30;32.70
21770;DHT22;11046;49.558;8.674;2022-07-12T15:28:57;31.30;32.60
21770;DHT22;11046;49.558;8.674;2022-07-12T15:31:59;31.20;31.90
21770;DHT22;11046;49.558;8.674;2022-07-12T15:34:59;31.10;32.10
21770;DHT22;11046;49.558;8.674;2022-07-12T15:38:00;30.90;32.20
21770;DHT22;11046;49.558;8.674;2022-07-12T15:41:00;30.90;32.50
21770;DHT22;11046;49.558;8.674;2022-07-12T15:44:01;30.90;32.20
21770;DHT22;11046;49.558;8.674;2022-07-12T15:47:04;30.90;32.30
21770;DHT22;11046;49.558;8.674;2022-07-12T15:50:06;30.70;32.20
21770;DHT22;11046;49.558;8.674;2022-07-12T15:53:07;30.60;32.50
21770;DHT22;11046;49.558;8.674;2022-07-12T15:56:26;30.50;32.50
21770;DHT22;11046;49.558;8.674;2022-07-12T15:59:27;30.50;32.60
21770;DHT22;11046;49.558;8.674;2022-07-12T16:02:28;30.40;32.70
21770;DHT22;11046;49.558;8.674;2022-07-12T16:05:30;30.40;32.70
21770;DHT22;11046;49.558;8.674;2022-07-12T16:08:31;30.30;32.70
21770;DHT22;11046;49.558;8.674;2022-07-12T16:11:32;30.20;32.80
21770;DHT22;11046;49.558;8.674;2022-07-12T16:14:33;30.20;32.90
21770;DHT22;11046;49.558;8.674;2022-07-12T16:17:34;30.00;33.60
21770;DHT22;11046;49.558;8.674;2022-07-12T16:20:35;30.10;33.50
21770;DHT22;11046;49.558;8.674;2022-07-12T16:23:36;30.10;33.00
21770;DHT22;11046;49.558;8.674;2022-07-12T16:26:36;30.10;33.20
21770;DHT22;11046;49.558;8.674;2022-07-12T16:29:37;30.10;33.20
21770;DHT22;11046;49.558;8.674;2022-07-12T16:32:38;30.10;33.00
21770;DHT22;11046;49.558;8.674;2022-07-12T16:35:39;30.10;33.00
21770;DHT22;11046;49.558;8.674;2022-07-12T16:38:40;30.00;32.90
21770;DHT22;11046;49.558;8.674;2022-07-12T16:41:41;29.80;33.40
21770;DHT22;11046;49.558;8.674;2022-07-12T16:44:42;29.70;33.00
21770;DHT22;11046;49.558;8.674;2022-07-12T16:47:43;29.60;33.30
21770;DHT22;11046;49.558;8.674;2022-07-12T16:50:43;29.40;33.50
21770;DHT22;11046;49.558;8.674;2022-07-12T16:53:44;29.20;33.60
21770;DHT22;11046;49.558;8.674;2022-07-12T16:56:46;29.20;33.70
21770;DHT22;11046;49.558;8.674;2022-07-12T16:59:46;29.20;33.70
21770;DHT22;11046;49.558;8.674;2022-07-12T17:02:47;29.10;33.70
21770;DHT22;11046;49.558;8.674;2022-07-12T17:05:49;29.10;34.00
21770;DHT22;11046;49.558;8.674;2022-07-12T17:08:50;29.10;34.50
21770;DHT22;11046;49.558;8.674;2022-07-12T17:11:51;29.10;34.40
21770;DHT22;11046;49.558;8.674;2022-07-12T17:14:52;29.10;34.40
21770;DHT22;11046;49.558;8.674;2022-07-12T17:17:52;29.10;34.10
21770;DHT22;11046;49.558;8.674;2022-07-12T17:20:53;29.10;33.90
21770;DHT22;11046;49.558;8.674;2022-07-12T17:23:54;29.10;34.00
21770;DHT22;11046;49.558;8.674;2022-07-12T17:26:55;29.00;33.80
21770;DHT22;11046;49.558;8.674;2022-07-12T17:29:56;29.00;33.60
21770;DHT22;11046;49.558;8.674;2022-07-12T17:33:00;29.00;33.30
21770;DHT22;11046;49.558;8.674;2022-07-12T17:36:03;28.90;33.90
21770;DHT22;11046;49.558;8.674;2022-07-12T17:39:04;28.90;34.00
21770;DHT22;11046;49.558;8.674;2022-07-12T17:42:05;28.80;34.00
21770;DHT22;11046;49.558;8.674;2022-07-12T17:45:07;28.70;33.90
21770;DHT22;11046;49.558;8.674;2022-07-12T17:48:09;28.70;33.80
21770;DHT22;11046;49.558;8.674;2022-07-12T17:51:10;28.50;33.80
21770;DHT22;11046;49.558;8.674;2022-07-12T17:54:10;28.50;34.00
21770;DHT22;11046;49.558;8.674;2022-07-12T17:57:11;28.40;34.40
21770;DHT22;11046;49.558;8.674;2022-07-12T18:00:12;28.30;34.80
21770;DHT22;11046;49.558;8.674;2022-07-12T18:03:13;28.20;35.00
21770;DHT22;11046;49.558;8.674;2022-07-12T18:06:20;28.00;35.90
21770;DHT22;11046;49.558;8.674;2022-07-12T18:09:21;27.90;35.60
21770;DHT22;11046;49.558;8.674;2022-07-12T18:12:22;27.70;36.00
21770;DHT22;11046;49.558;8.674;2022-07-12T18:15:41;27.60;36.40
21770;DHT22;11046;49.558;8.674;2022-07-12T18:18:42;27.50;36.70
21770;DHT22;11046;49.558;8.674;2022-07-12T18:21:43;27.40;37.30
21770;DHT22;11046;49.558;8.674;2022-07-12T18:24:48;27.30;37.70
21770;DHT22;11046;49.558;8.674;2022-07-12T18:27:49;27.20;38.30
21770;DHT22;11046;49.558;8.674;2022-07-12T18:30:50;27.10;38.60
21770;DHT22;11046;49.558;8.674;2022-07-12T18:33:51;27.00;38.90
21770;DHT22;11046;49.558;8.674;2022-07-12T18:36:52;26.90;39.20
21770;DHT22;11046;49.558;8.674;2022-07-12T18:39:52;26.90;39.70
21770;DHT22;11046;49.558;8.674;2022-07-12T18:42:53;26.80;39.90
21770;DHT22;11046;49.558;8.674;2022-07-12T18:45:54;26.60;39.90
21770;DHT22;11046;49.558;8.674;2022-07-12T18:48:55;26.50;40.00
21770;DHT22;11046;49.558;8.674;2022-07-12T18:51:55;26.30;40.20
21770;DHT22;11046;49.558;8.674;2022-07-12T18:54:56;26.10;40.20
21770;DHT22;11046;49.558;8.674;2022-07-12T18:57:57;26.00;40.20
21770;DHT22;11046;49.558;8.674;2022-07-12T19:00:57;25.90;40.40
21770;DHT22;11046;49.558;8.674;2022-07-12T19:03:58;25.80;40.60
21770;DHT22;11046;49.558;8.674;2022-07-12T19:06:59;25.60;40.70
21770;DHT22;11046;49.558;8.674;2022-07-12T19:10:00;25.50;40.90
21770;DHT22;11046;49.558;8.674;2022-07-12T19:13:01;25.40;41.10
21770;DHT22;11046;49.558;8.674;2022-07-12T19:16:01;25.30;41.30